Time;durP1;ratioP1;P1;durP2;ratioP2;P2;SDS_P1;SDS_P2;PMS_P1;PMS_P2;Temp;Humidity;BMP_temperature;BMP_pressure;BME280_temperature;BME280_humidity;BME280_pressure;Samples;Min_cycle;Max_cycle;Signal;HPM_P1;HPM_P2
2021/08/23 00:00:09;;;;;;;7.22;6.53;;;17.80;99.90;;;;;;2631089;54;20185;-79
2021/08/23 00:02:39;;;;;;;7.20;6.50;;;17.90;99.90;;;;;;2631005;54;20157;-79
2021/08/23 00:05:13;;;;;;;7.93;7.00;;;17.90;99.90;;;;;;2630586;47;20151;-78
2021/08/23 00:07:41;;;;;;;7.25;6.55;;;18.10;99.90;;;;;;2630716;47;20142;-79
2021/08/23 00:10:11;;;;;;;8.07;7.32;;;18.00;99.90;;;;;;2631059;54;20161;-79
2021/08/23 00:12:40;;;;;;;8.93;7.70;;;18.00;99.90;;;;;;2631071;54;20161;-79
2021/08/23 00:15:10;;;;;;;11.68;8.98;;;18.20;99.90;;;;;;2630340;54;20210;-79
2021/08/23 00:17:39;;;;;;;9.13;8.23;;;18.00;99.90;;;;;;2631051;54;20142;-79
2021/08/23 00:20:10;;;;;;;9.60;8.80;;;17.90;99.90;;;;;;2630988;54;20138;-79
2021/08/23 00:22:51;;;;;;;11.32;10.30;;;17.80;99.90;;;;;;2630731;54;20177;-79
2021/08/23 00:25:21;;;;;;;10.32;9.32;;;17.90;99.90;;;;;;2630744;46;20133;-78
2021/08/23 00:27:50;;;;;;;12.38;9.77;;;17.80;99.90;;;;;;2630775;54;20160;-78
2021/08/23 00:30:19;;;;;;;10.98;9.98;;;17.90;99.90;;;;;;2630858;54;20133;-78
2021/08/23 00:32:48;;;;;;;11.40;10.32;;;17.90;99.90;;;;;;2630700;46;20161;-79
2021/08/23 00:35:17;;;;;;;9.95;9.05;;;18.00;99.90;;;;;;2640733;39;20940;-78
2021/08/23 00:37:50;;;;;;;11.95;10.75;;;17.90;99.90;;;;;;2630933;54;20172;-79
2021/08/23 00:40:19;;;;;;;10.73;9.52;;;18.00;99.90;;;;;;2630805;47;20144;-78
2021/08/23 00:42:48;;;;;;;9.93;9.02;;;17.80;99.90;;;;;;2630819;54;20165;-79
2021/08/23 00:45:17;;;;;;;10.35;9.35;;;17.90;99.90;;;;;;2630736;54;20134;-79
2021/08/23 00:47:46;;;;;;;16.13;8.50;;;18.00;99.90;;;;;;2630932;47;20152;-79
2021/08/23 00:50:15;;;;;;;10.52;9.00;;;17.80;99.90;;;;;;2630815;54;20202;-79
2021/08/23 00:52:47;;;;;;;8.60;7.80;;;18.00;99.90;;;;;;2630879;54;20153;-78
2021/08/23 00:55:16;;;;;;;8.68;7.18;;;17.90;99.90;;;;;;2640323;39;20739;-78
2021/08/23 00:57:46;;;;;;;9.27;7.50;;;17.80;99.90;;;;;;2630818;54;20153;-80
2021/08/23 01:00:15;;;;;;;7.82;7.22;;;18.00;99.90;;;;;;2630556;47;20139;-78
2021/08/23 01:02:50;;;;;;;8.32;7.57;;;18.00;99.90;;;;;;2630940;54;20176;-79
2021/08/23 01:05:25;;;;;;;7.28;6.57;;;17.90;99.90;;;;;;2630459;54;20152;-79
2021/08/23 01:08:00;;;;;;;6.97;6.35;;;17.80;99.90;;;;;;2630839;47;20151;-78
2021/08/23 01:10:33;;;;;;;7.97;6.90;;;17.80;99.90;;;;;;2630821;47;20145;-78
2021/08/23 01:13:05;;;;;;;7.93;6.38;;;17.90;99.90;;;;;;2630567;47;20175;-77
2021/08/23 01:15:34;;;;;;;7.00;6.38;;;17.90;99.90;;;;;;2630596;54;20160;-78
2021/08/23 01:18:03;;;;;;;7.20;6.40;;;17.90;99.90;;;;;;2630573;47;20241;-78
2021/08/23 01:20:34;;;;;;;6.40;5.80;;;17.80;99.90;;;;;;2630510;47;20144;-77
2021/08/23 01:23:06;;;;;;;5.63;5.07;;;17.70;99.90;;;;;;2630517;47;20163;-78
2021/08/23 01:25:37;;;;;;;9.45;7.95;;;17.70;99.90;;;;;;2630979;47;20979;-78
2021/08/23 01:28:12;;;;;;;7.38;6.05;;;17.90;99.90;;;;;;2631638;54;20136;-78
2021/08/23 01:30:50;;;;;;;6.70;6.20;;;17.80;99.90;;;;;;2631579;54;20149;-78
2021/08/23 01:33:21;;;;;;;7.60;6.07;;;17.70;99.90;;;;;;2631637;47;20141;-79
2021/08/23 01:35:50;;;;;;;6.10;5.60;;;17.80;99.90;;;;;;2631398;54;20141;-79
2021/08/23 01:38:19;;;;;;;8.48;5.95;;;17.80;99.90;;;;;;2631483;54;20145;-78
2021/08/23 01:40:48;;;;;;;6.32;5.60;;;17.80;99.90;;;;;;2642634;31;20808;-78
2021/08/23 01:43:16;;;;;;;11.90;6.28;;;17.80;99.90;;;;;;2630588;47;20201;-81
2021/08/23 01:45:45;;;;;;;6.75;6.15;;;17.70;99.90;;;;;;2631240;54;20130;-82
2021/08/23 01:48:14;;;;;;;6.75;5.90;;;17.70;99.90;;;;;;2631882;54;20189;-80
2021/08/23 01:50:45;;;;;;;9.02;6.13;;;17.70;99.90;;;;;;2631824;54;20133;-82
2021/08/23 01:53:16;;;;;;;6.10;5.60;;;17.50;99.90;;;;;;2670481;39;20780;-82
2021/08/23 01:55:45;;;;;;;6.13;5.53;;;17.40;99.90;;;;;;2640183;39;20791;-83
2021/08/23 01:58:13;;;;;;;8.32;5.97;;;17.30;99.90;;;;;;2631794;54;20177;-80
2021/08/23 02:00:42;;;;;;;5.78;5.28;;;17.50;99.90;;;;;;2631704;54;20129;-80
2021/08/23 02:03:11;;;;;;;5.18;4.78;;;17.40;99.90;;;;;;2631924;54;20173;-81
2021/08/23 02:05:40;;;;;;;7.07;6.30;;;17.40;99.90;;;;;;2631653;54;20125;-83
2021/08/23 02:08:12;;;;;;;6.93;5.80;;;17.40;99.90;;;;;;2632026;47;20136;-83
2021/08/23 02:10:41;;;;;;;6.50;5.60;;;17.40;99.90;;;;;;2631884;54;20134;-83
2021/08/23 02:13:10;;;;;;;8.45;5.45;;;17.30;99.90;;;;;;2631812;46;20180;-82
2021/08/23 02:15:39;;;;;;;6.03;5.43;;;17.20;99.90;;;;;;2631664;46;20198;-85
2021/08/23 02:18:07;;;;;;;5.90;5.25;;;17.30;99.90;;;;;;2631900;54;20141;-82
2021/08/23 02:20:36;;;;;;;6.40;5.32;;;17.40;99.90;;;;;;2631761;54;20133;-83
2021/08/23 02:23:05;;;;;;;8.50;5.43;;;17.40;99.90;;;;;;2630121;54;20161;-83
2021/08/23 02:25:37;;;;;;;11.10;5.25;;;17.40;99.90;;;;;;2631459;47;20133;-83
2021/08/23 02:28:06;;;;;;;6.40;5.03;;;17.30;99.90;;;;;;2631993;46;20130;-82
2021/08/23 02:30:35;;;;;;;6.15;4.65;;;17.40;99.90;;;;;;2636996;39;20813;-84
2021/08/23 02:33:04;;;;;;;4.93;4.45;;;17.40;99.90;;;;;;2631664;46;20213;-84
2021/08/23 02:35:33;;;;;;;6.82;4.93;;;17.40;99.90;;;;;;2631493;54;20141;-81
2021/08/23 02:38:02;;;;;;;6.43;5.13;;;17.50;99.90;;;;;;2630959;46;20121;-83
2021/08/23 02:40:31;;;;;;;5.82;4.97;;;17.40;99.90;;;;;;2631581;54;20748;-83
2021/08/23 02:43:03;;;;;;;6.25;4.85;;;17.40;99.90;;;;;;2631353;54;20196;-82
2021/08/23 02:45:32;;;;;;;6.13;5.22;;;17.30;99.90;;;;;;2630994;54;20158;-82
2021/08/23 02:48:01;;;;;;;4.93;4.45;;;17.30;99.90;;;;;;2631442;54;20153;-82
2021/08/23 02:50:30;;;;;;;6.15;5.38;;;17.40;99.90;;;;;;2631477;54;20129;-81
2021/08/23 02:52:59;;;;;;;5.97;5.22;;;17.40;99.90;;;;;;2631385;47;20213;-81
2021/08/23 02:55:28;;;;;;;6.57;5.38;;;17.40;99.90;;;;;;2631345;54;20160;-83
2021/08/23 02:57:57;;;;;;;5.68;5.25;;;17.40;99.90;;;;;;2631517;54;20172;-83
2021/08/23 03:00:28;;;;;;;6.13;4.68;;;17.50;99.90;;;;;;2631664;47;20126;-82
2021/08/23 03:02:57;;;;;;;5.07;4.68;;;17.30;99.90;;;;;;2631536;54;20176;-82
2021/08/23 03:05:26;;;;;;;6.35;5.40;;;17.20;99.90;;;;;;2631331;54;20702;-82
2021/08/23 03:07:54;;;;;;;6.43;5.78;;;17.20;99.90;;;;;;2631600;46;20130;-81
2021/08/23 03:10:23;;;;;;;5.90;5.30;;;17.20;99.90;;;;;;2631529;54;20130;-80
2021/08/23 03:12:53;;;;;;;7.10;4.35;;;17.30;99.90;;;;;;2631497;46;20217;-83
2021/08/23 03:15:22;;;;;;;5.45;5.05;;;17.30;99.90;;;;;;2631332;47;20169;-85
2021/08/23 03:17:54;;;;;;;5.50;5.00;;;17.40;99.90;;;;;;2631363;54;20703;-81
2021/08/23 03:20:23;;;;;;;5.95;5.40;;;17.40;99.90;;;;;;2631631;46;20209;-83
2021/08/23 03:22:51;;;;;;;6.90;6.30;;;17.30;99.90;;;;;;2633608;39;20746;-83
2021/08/23 03:25:20;;;;;;;10.52;7.22;;;17.30;99.90;;;;;;2631061;54;20869;-82
2021/08/23 03:27:49;;;;;;;6.75;6.15;;;17.30;99.90;;;;;;2631515;47;20146;-84
2021/08/23 03:30:18;;;;;;;7.85;5.93;;;17.20;99.90;;;;;;2631458;54;20137;-82
2021/08/23 03:32:46;;;;;;;6.72;5.47;;;17.30;99.90;;;;;;2638515;39;20368;-83
2021/08/23 03:35:18;;;;;;;6.43;5.75;;;17.40;99.90;;;;;;2631401;46;20137;-84
2021/08/23 03:37:46;;;;;;;7.78;6.72;;;17.20;99.90;;;;;;2631539;54;20133;-81
2021/08/23 03:40:16;;;;;;;10.23;5.72;;;17.20;99.90;;;;;;2631616;47;20152;-79
2021/08/23 03:42:45;;;;;;;7.03;6.43;;;17.20;99.90;;;;;;2631482;47;20176;-84
2021/08/23 03:45:14;;;;;;;8.25;6.30;;;17.20;99.90;;;;;;2631267;54;20145;-81
2021/08/23 03:47:42;;;;;;;8.35;7.35;;;17.20;99.90;;;;;;2631309;54;20168;-84
2021/08/23 03:50:12;;;;;;;5.70;5.20;;;17.40;99.90;;;;;;2631359;46;20160;-80
2021/08/23 03:52:43;;;;;;;15.82;14.25;;;17.20;99.90;;;;;;2629735;46;20207;-81
2021/08/23 03:55:13;;;;;;;8.15;7.35;;;17.30;99.90;;;;;;2631159;47;20133;-81
2021/08/23 03:57:42;;;;;;;8.35;7.65;;;17.30;99.90;;;;;;2631504;47;20132;-84
2021/08/23 04:00:12;;;;;;;8.25;7.40;;;17.30;99.90;;;;;;2631395;54;20193;-83
2021/08/23 04:02:42;;;;;;;8.43;7.45;;;17.30;99.90;;;;;;2631473;54;20153;-83
2021/08/23 04:05:12;;;;;;;8.32;7.57;;;17.30;99.90;;;;;;2628813;54;20927;-78
2021/08/23 04:07:43;;;;;;;7.70;6.93;;;17.20;99.90;;;;;;2631111;46;20189;-78
2021/08/23 04:10:13;;;;;;;7.22;6.63;;;17.30;99.90;;;;;;2631075;54;20210;-77
2021/08/23 04:12:42;;;;;;;9.57;6.68;;;17.20;99.90;;;;;;2630922;46;20168;-78
2021/08/23 04:15:12;;;;;;;7.65;7.03;;;17.20;99.90;;;;;;2630852;54;20153;-79
2021/08/23 04:17:41;;;;;;;6.72;6.13;;;17.00;99.90;;;;;;2631031;54;20197;-78
2021/08/23 04:20:12;;;;;;;8.40;7.63;;;17.00;99.90;;;;;;2631025;54;20129;-78
2021/08/23 04:22:43;;;;;;;9.07;8.27;;;17.10;99.90;;;;;;2631034;47;20222;-78
2021/08/23 04:25:12;;;;;;;8.85;7.95;;;17.10;99.90;;;;;;2630636;47;20161;-78
2021/08/23 04:27:41;;;;;;;8.35;7.55;;;17.20;99.90;;;;;;2630899;47;20237;-78
2021/08/23 04:30:12;;;;;;;8.65;7.25;;;17.10;99.90;;;;;;2633900;46;20756;-79
2021/08/23 04:32:41;;;;;;;9.70;7.07;;;17.10;99.90;;;;;;2631079;54;20145;-79
2021/08/23 04:35:11;;;;;;;7.25;6.50;;;17.20;99.90;;;;;;2634822;39;20733;-77
2021/08/23 04:37:39;;;;;;;7.75;6.53;;;17.10;99.90;;;;;;2630888;47;20145;-79
2021/08/23 04:40:12;;;;;;;7.60;6.70;;;17.20;99.90;;;;;;2631113;54;20145;-78
2021/08/23 04:42:41;;;;;;;6.35;5.75;;;17.20;99.90;;;;;;2631056;54;20139;-78
2021/08/23 04:45:10;;;;;;;9.20;6.60;;;17.20;99.90;;;;;;2630543;47;20777;-78
2021/08/23 04:47:39;;;;;;;6.30;5.78;;;17.20;99.90;;;;;;2630690;47;20145;-78
2021/08/23 04:50:09;;;;;;;8.45;6.32;;;17.20;99.90;;;;;;2630967;54;20160;-79
2021/08/23 04:52:42;;;;;;;6.82;6.22;;;17.30;99.90;;;;;;2630935;47;20138;-78
2021/08/23 04:55:17;;;;;;;7.38;6.65;;;17.20;99.90;;;;;;2630467;54;20257;-78
2021/08/23 04:57:46;;;;;;;7.32;6.50;;;17.20;99.90;;;;;;2629334;47;20181;-78
2021/08/23 05:00:15;;;;;;;7.70;7.03;;;17.30;99.90;;;;;;2630648;47;20265;-79
2021/08/23 05:02:44;;;;;;;8.27;7.47;;;17.30;99.90;;;;;;2630648;54;20134;-80
2021/08/23 05:05:13;;;;;;;9.00;7.25;;;17.20;99.90;;;;;;2630558;54;20207;-77
2021/08/23 05:07:42;;;;;;;8.18;6.57;;;17.20;99.90;;;;;;2628647;47;20153;-75
2021/08/23 05:10:14;;;;;;;8.32;6.50;;;17.20;99.90;;;;;;2629371;54;20180;-78
2021/08/23 05:12:43;;;;;;;6.45;5.85;;;17.20;99.90;;;;;;2630535;47;20193;-78
2021/08/23 05:15:13;;;;;;;7.18;6.53;;;17.20;99.90;;;;;;2630469;54;20177;-78
2021/08/23 05:17:41;;;;;;;9.10;7.00;;;17.30;99.90;;;;;;2630396;47;20481;-78
2021/08/23 05:20:11;;;;;;;6.03;5.43;;;17.20;99.90;;;;;;2630821;54;21082;-78
2021/08/23 05:22:41;;;;;;;7.03;6.32;;;17.40;99.90;;;;;;2630702;47;20148;-78
2021/08/23 05:25:10;;;;;;;7.25;6.13;;;17.30;99.90;;;;;;2630212;47;20188;-78
2021/08/23 05:27:42;;;;;;;8.80;5.70;;;17.30;99.90;;;;;;2630615;54;20125;-78
2021/08/23 05:30:12;;;;;;;6.47;5.90;;;17.40;99.90;;;;;;2630517;47;20152;-78
2021/08/23 05:32:41;;;;;;;8.63;6.57;;;17.30;99.90;;;;;;2630749;54;20137;-78
2021/08/23 05:35:11;;;;;;;6.90;6.30;;;17.20;99.90;;;;;;2630219;47;20165;-77
2021/08/23 05:37:40;;;;;;;9.88;6.90;;;17.30;99.90;;;;;;2630351;47;20136;-76
2021/08/23 05:40:11;;;;;;;8.50;7.13;;;17.40;99.90;;;;;;2630291;47;20154;-77
2021/08/23 05:42:42;;;;;;;6.50;5.90;;;17.30;99.90;;;;;;2630460;47;20806;-77
2021/08/23 05:45:11;;;;;;;8.60;6.82;;;17.40;99.90;;;;;;2630484;47;20153;-78
2021/08/23 05:47:41;;;;;;;10.25;7.35;;;17.40;99.90;;;;;;2630461;47;20133;-77
2021/08/23 05:50:11;;;;;;;8.32;7.53;;;17.40;99.90;;;;;;2628657;47;20145;-77
2021/08/23 05:52:40;;;;;;;9.35;6.78;;;17.40;99.90;;;;;;2628769;54;20209;-78
2021/08/23 05:55:09;;;;;;;14.05;7.75;;;17.20;99.90;;;;;;2629538;54;21011;-77
2021/08/23 05:57:38;;;;;;;9.85;7.47;;;17.20;99.90;;;;;;2629906;47;20138;-78
2021/08/23 06:00:13;;;;;;;8.05;7.25;;;17.20;99.90;;;;;;2629649;54;20148;-77
2021/08/23 06:02:42;;;;;;;9.52;7.25;;;17.30;99.90;;;;;;2629622;47;20149;-78
2021/08/23 06:05:13;;;;;;;8.13;7.43;;;17.30;99.90;;;;;;2629553;47;20177;-77
2021/08/23 06:07:42;;;;;;;7.45;6.80;;;17.20;99.90;;;;;;2629862;47;20919;-77
2021/08/23 06:10:13;;;;;;;8.32;7.53;;;17.10;99.90;;;;;;2629609;54;20154;-78
2021/08/23 06:12:42;;;;;;;8.13;5.95;;;17.20;99.90;;;;;;2630086;47;20169;-77
2021/08/23 06:15:14;;;;;;;8.00;7.30;;;17.20;99.90;;;;;;2630176;54;20200;-77
2021/08/23 06:17:43;;;;;;;7.10;6.40;;;17.20;99.90;;;;;;2630742;46;20829;-77
2021/08/23 06:20:12;;;;;;;9.15;7.03;;;17.20;99.90;;;;;;2630385;54;20145;-77
2021/08/23 06:22:43;;;;;;;8.30;6.53;;;17.20;99.90;;;;;;2631452;46;20151;-78
2021/08/23 06:25:12;;;;;;;6.57;5.38;;;17.30;99.90;;;;;;2630499;46;20161;-77
2021/08/23 06:27:41;;;;;;;6.80;5.88;;;17.10;99.90;;;;;;2629806;47;20152;-77
2021/08/23 06:30:14;;;;;;;7.00;5.60;;;17.10;99.90;;;;;;2630005;46;20813;-76
2021/08/23 06:32:43;;;;;;;7.85;5.65;;;17.20;99.90;;;;;;2630705;46;20152;-78
2021/08/23 06:35:12;;;;;;;5.35;4.78;;;17.20;99.90;;;;;;2630459;54;20153;-78
2021/08/23 06:37:42;;;;;;;5.68;5.15;;;17.40;99.90;;;;;;2630618;54;20149;-78
2021/08/23 06:40:11;;;;;;;6.05;4.28;;;17.40;99.90;;;;;;2630455;47;20130;-77
2021/08/23 06:42:41;;;;;;;6.90;5.07;;;17.30;99.90;;;;;;2630638;46;20149;-78
2021/08/23 06:45:10;;;;;;;6.13;4.28;;;17.30;99.90;;;;;;2630475;46;20175;-78
2021/08/23 06:47:42;;;;;;;7.53;4.47;;;17.10;99.90;;;;;;2630522;54;20150;-78
2021/08/23 06:50:11;;;;;;;7.30;4.60;;;17.30;99.90;;;;;;2631105;39;20827;-78
2021/08/23 06:52:42;;;;;;;5.35;4.13;;;17.30;99.90;;;;;;2630404;54;20205;-77
2021/08/23 06:55:11;;;;;;;5.90;4.63;;;17.40;99.90;;;;;;2630433;46;20201;-78
2021/08/23 06:57:40;;;;;;;6.72;4.68;;;17.40;99.90;;;;;;2631008;39;20187;-78
2021/08/23 07:00:10;;;;;;;5.22;4.07;;;17.40;99.90;;;;;;2630279;47;20205;-77
2021/08/23 07:02:41;;;;;;;5.65;3.60;;;17.20;99.90;;;;;;2628399;46;20161;-77
2021/08/23 07:05:11;;;;;;;6.82;4.30;;;17.20;99.90;;;;;;2634353;39;20410;-79
2021/08/23 07:07:40;;;;;;;7.00;4.53;;;17.30;99.90;;;;;;2630405;54;20149;-79
2021/08/23 07:10:12;;;;;;;7.15;4.68;;;17.20;99.90;;;;;;2629736;47;20149;-79
2021/08/23 07:12:41;;;;;;;9.30;4.18;;;17.40;99.90;;;;;;2629512;46;20188;-79
2021/08/23 07:15:11;;;;;;;3.67;3.38;;;17.50;99.90;;;;;;2630067;47;20184;-77
2021/08/23 07:17:42;;;;;;;8.25;4.93;;;17.50;99.90;;;;;;2630251;47;20169;-78
2021/08/23 07:20:12;;;;;;;5.35;3.97;;;17.60;99.90;;;;;;2631863;39;20817;-79
2021/08/23 07:22:42;;;;;;;4.13;3.72;;;17.70;99.90;;;;;;2630170;54;20153;-78
2021/08/23 07:25:12;;;;;;;4.43;3.53;;;17.60;99.90;;;;;;2630085;54;20221;-79
2021/08/23 07:27:40;;;;;;;4.97;3.83;;;17.50;99.90;;;;;;2630037;47;20148;-78
2021/08/23 07:30:10;;;;;;;4.18;3.35;;;17.40;99.90;;;;;;2630303;46;20188;-78
2021/08/23 07:32:43;;;;;;;3.97;3.67;;;17.40;99.90;;;;;;2629477;47;20153;-78
2021/08/23 07:35:12;;;;;;;7.03;4.63;;;17.50;99.90;;;;;;2631209;39;20794;-78
2021/08/23 07:37:46;;;;;;;6.05;3.38;;;17.60;99.90;;;;;;2630378;46;20202;-78
2021/08/23 07:40:16;;;;;;;6.93;3.67;;;17.60;99.90;;;;;;2629874;47;20173;-78
2021/08/23 07:42:45;;;;;;;6.97;3.70;;;17.70;99.90;;;;;;2630157;47;20291;-77
2021/08/23 07:45:18;;;;;;;5.90;4.30;;;17.60;99.90;;;;;;2637030;39;20689;-78
2021/08/23 07:47:49;;;;;;;4.63;3.80;;;17.70;99.90;;;;;;2630321;47;20155;-78
2021/08/23 07:50:18;;;;;;;6.80;3.63;;;17.60;99.90;;;;;;2629602;54;20125;-78
2021/08/23 07:52:47;;;;;;;5.25;3.70;;;17.50;99.90;;;;;;2630347;47;20153;-77
2021/08/23 07:55:16;;;;;;;3.55;3.25;;;17.60;99.90;;;;;;2630158;47;20169;-78
2021/08/23 07:57:47;;;;;;;3.80;3.42;;;17.70;99.90;;;;;;2630027;47;20928;-78
2021/08/23 08:00:18;;;;;;;8.45;3.88;;;17.70;99.90;;;;;;2629259;47;20153;-79
2021/08/23 08:02:49;;;;;;;4.55;3.58;;;17.90;99.90;;;;;;2631954;39;20447;-78
2021/08/23 08:05:18;;;;;;;3.45;3.15;;;17.90;99.90;;;;;;2632783;39;20801;-78
2021/08/23 08:07:47;;;;;;;6.22;3.28;;;18.10;99.90;;;;;;2629564;47;20157;-78
2021/08/23 08:10:17;;;;;;;4.88;3.67;;;18.00;99.90;;;;;;2629831;47;20272;-79
2021/08/23 08:12:46;;;;;;;3.95;3.45;;;18.10;99.90;;;;;;2630126;54;20153;-79
2021/08/23 08:15:15;;;;;;;6.07;3.78;;;17.90;99.90;;;;;;2629092;54;20193;-78
2021/08/23 08:17:44;;;;;;;3.63;3.33;;;18.00;99.90;;;;;;2629895;47;20168;-77
2021/08/23 08:20:17;;;;;;;4.57;3.45;;;18.10;99.90;;;;;;2630015;47;20703;-79
2021/08/23 08:22:46;;;;;;;9.02;4.85;;;18.30;99.90;;;;;;2630280;47;20825;-79
2021/08/23 08:25:15;;;;;;;4.30;3.38;;;18.40;99.90;;;;;;2630030;54;20183;-79
2021/08/23 08:27:44;;;;;;;4.20;3.47;;;18.50;99.90;;;;;;2633581;39;20621;-80
2021/08/23 08:30:17;;;;;;;4.20;3.22;;;18.60;99.90;;;;;;2630134;47;21145;-79
2021/08/23 08:32:46;;;;;;;3.63;3.33;;;18.70;99.90;;;;;;2630651;31;20775;-80
2021/08/23 08:35:17;;;;;;;4.78;3.65;;;18.70;99.90;;;;;;2629796;47;20221;-81
2021/08/23 08:37:46;;;;;;;4.72;3.55;;;18.80;99.90;;;;;;2630427;47;20160;-81
2021/08/23 08:40:15;;;;;;;4.55;3.58;;;18.80;99.90;;;;;;2630092;47;20680;-81
2021/08/23 08:42:44;;;;;;;4.85;3.42;;;18.80;99.90;;;;;;2630258;54;20157;-81
2021/08/23 08:45:14;;;;;;;3.22;2.55;;;18.80;99.90;;;;;;2629771;51;20173;-81
2021/08/23 08:47:44;;;;;;;7.35;3.67;;;18.90;99.90;;;;;;2630243;47;20145;-78
2021/08/23 08:50:18;;;;;;;9.23;4.53;;;18.70;99.90;;;;;;2630059;54;20896;-79
2021/08/23 08:52:48;;;;;;;4.55;3.70;;;19.10;99.90;;;;;;2630194;47;20153;-79
2021/08/23 08:55:17;;;;;;;4.80;3.47;;;19.20;99.90;;;;;;2630008;54;20192;-80
2021/08/23 10:06:20;;;;;;;3.30;2.80;;;19.40;99.90;;;;;;2618332;46;20243;-42
2021/08/23 10:08:49;;;;;;;3.08;2.85;;;21.50;99.90;;;;;;2617053;47;20600;-42
2021/08/23 10:11:20;;;;;;;7.03;3.63;;;21.60;99.90;;;;;;2617040;54;20180;-42
2021/08/23 10:13:49;;;;;;;4.47;2.90;;;21.50;99.90;;;;;;2616798;54;20160;-43
2021/08/23 10:16:18;;;;;;;5.55;2.72;;;21.50;99.90;;;;;;2616890;54;20138;-42
2021/08/23 10:18:48;;;;;;;3.40;2.90;;;21.50;99.90;;;;;;2617200;54;20232;-44
2021/08/23 10:21:20;;;;;;;4.80;3.28;;;21.60;99.90;;;;;;2616498;54;20141;-43
2021/08/23 10:23:51;;;;;;;6.00;3.28;;;21.80;99.90;;;;;;2617219;54;20152;-44
2021/08/23 10:26:20;;;;;;;2.72;2.53;;;22.00;99.90;;;;;;2617245;54;20130;-43
2021/08/23 10:28:50;;;;;;;2.60;2.38;;;22.00;99.90;;;;;;2616990;54;20717;-45
2021/08/23 10:31:21;;;;;;;3.05;2.25;;;22.20;99.90;;;;;;2617408;54;20169;-44
2021/08/23 10:33:51;;;;;;;2.83;2.20;;;22.40;99.90;;;;;;2617139;54;20160;-42
2021/08/23 10:36:23;;;;;;;5.00;2.97;;;22.70;99.90;;;;;;2616870;54;20133;-42
2021/08/23 10:39:03;;;;;;;4.43;2.53;;;22.70;99.90;;;;;;2616111;54;20703;-43
2021/08/23 10:41:31;;;;;;;3.25;2.55;;;22.50;99.90;;;;;;2616964;47;20160;-43
2021/08/23 10:44:03;;;;;;;4.07;2.45;;;22.40;99.90;;;;;;2616762;54;20149;-41
2021/08/23 10:46:34;;;;;;;2.28;2.08;;;22.50;99.90;;;;;;2616482;54;20244;-42
2021/08/23 10:49:06;;;;;;;2.00;1.80;;;22.70;99.90;;;;;;2616708;54;20172;-42
2021/08/23 10:51:40;;;;;;;2.70;2.05;;;22.80;99.90;;;;;;2616995;54;20145;-43
2021/08/23 10:54:23;;;;;;;2.00;1.90;;;22.70;99.90;;;;;;2616983;54;20153;-42
2021/08/23 10:57:05;;;;;;;5.60;1.98;;;22.60;99.90;;;;;;2616516;54;20145;-42
2021/08/23 10:59:44;;;;;;;1.83;1.58;;;23.00;99.90;;;;;;2615492;54;20197;-41
2021/08/23 11:02:15;;;;;;;2.22;2.03;;;23.40;99.90;;;;;;2615945;54;20153;-43
2021/08/23 11:04:49;;;;;;;4.20;2.20;;;23.30;99.90;;;;;;2614799;54;20156;-42
2021/08/23 11:07:28;;;;;;;5.63;2.60;;;23.40;99.90;;;;;;2615999;54;20145;-43
2021/08/23 11:10:05;;;;;;;4.30;1.70;;;23.50;99.90;;;;;;2615167;54;20682;-42
2021/08/23 11:12:44;;;;;;;3.00;1.80;;;23.30;99.90;;;;;;2616443;54;20537;-43
2021/08/23 11:15:20;;;;;;;3.17;1.98;;;23.10;99.90;;;;;;2616813;54;20164;-42
2021/08/23 11:17:51;;;;;;;7.85;1.50;;;23.20;99.90;;;;;;2616040;54;20192;-41
2021/08/23 11:20:23;;;;;;;2.08;1.42;;;23.20;99.90;;;;;;2615529;54;20152;-41
2021/08/23 11:22:59;;;;;;;2.38;1.63;;;23.10;99.90;;;;;;2616781;54;20236;-41
2021/08/23 11:25:32;;;;;;;3.17;1.55;;;22.90;99.90;;;;;;2617037;54;20140;-42
2021/08/23 11:28:02;;;;;;;3.92;1.85;;;22.90;99.90;;;;;;2617244;54;20208;-42
2021/08/23 11:30:33;;;;;;;2.47;1.40;;;23.40;99.90;;;;;;2616751;54;20141;-42
2021/08/23 11:33:03;;;;;;;2.22;1.80;;;23.40;99.90;;;;;;2614652;54;20156;-42
2021/08/23 11:35:32;;;;;;;3.45;1.20;;;23.40;99.90;;;;;;2615413;39;20544;-44
2021/08/23 11:38:05;;;;;;;1.38;1.27;;;23.20;99.90;;;;;;2617150;39;20582;-43
2021/08/23 11:40:35;;;;;;;3.50;1.50;;;23.00;99.90;;;;;;2616866;47;20778;-42
2021/08/23 11:43:06;;;;;;;2.03;1.40;;;22.70;99.90;;;;;;2616296;54;20648;-41
2021/08/23 11:45:37;;;;;;;2.13;1.38;;;23.00;99.90;;;;;;2615212;54;20145;-42
2021/08/23 11:48:07;;;;;;;3.25;1.10;;;23.50;99.90;;;;;;2615425;54;20710;-42
2021/08/23 11:50:37;;;;;;;1.60;1.15;;;23.90;99.90;;;;;;2615920;54;20148;-41
2021/08/23 11:53:10;;;;;;;1.10;0.98;;;24.30;99.90;;;;;;2615350;54;20153;-42
2021/08/23 11:55:41;;;;;;;1.10;1.00;;;24.70;99.90;;;;;;2616245;54;20244;-41
2021/08/23 11:58:12;;;;;;;1.67;0.90;;;24.90;99.90;;;;;;2616392;54;20165;-41
2021/08/23 12:00:43;;;;;;;2.03;1.20;;;24.60;99.90;;;;;;2614946;47;20160;-41
2021/08/23 12:03:15;;;;;;;2.25;1.08;;;24.60;99.90;;;;;;2616519;54;20137;-41
2021/08/23 12:05:46;;;;;;;1.38;0.88;;;24.70;99.90;;;;;;2616427;47;20164;-41
2021/08/23 12:08:27;;;;;;;1.20;0.85;;;24.80;99.90;;;;;;2616922;39;20258;-41
2021/08/23 12:10:59;;;;;;;2.25;1.08;;;24.70;99.90;;;;;;2615814;54;20148;-42
2021/08/23 12:13:29;;;;;;;1.08;1.00;;;24.60;99.90;;;;;;2616429;51;20169;-42
2021/08/23 12:16:00;;;;;;;1.33;1.13;;;24.70;99.90;;;;;;2616392;39;20563;-41
2021/08/23 12:18:35;;;;;;;0.90;0.90;;;24.60;99.90;;;;;;2616441;54;20220;-41
2021/08/23 12:21:07;;;;;;;1.23;0.90;;;24.60;99.90;;;;;;2616115;54;20145;-41
2021/08/23 12:23:55;;;;;;;2.17;1.10;;;24.70;99.90;;;;;;2615638;54;20180;-43
2021/08/23 12:26:34;;;;;;;2.50;1.20;;;24.90;99.90;;;;;;2616172;39;20563;-41
2021/08/23 12:29:04;;;;;;;1.55;1.45;;;24.70;99.90;;;;;;2614762;54;20184;-41
2021/08/23 12:31:34;;;;;;;2.88;0.98;;;24.90;99.90;;;;;;2615368;54;20168;-41
2021/08/23 12:34:13;;;;;;;1.25;1.08;;;24.90;99.90;;;;;;2616393;54;20156;-41
2021/08/23 12:36:42;;;;;;;4.15;1.17;;;24.90;99.90;;;;;;2615897;54;20157;-42
2021/08/23 12:39:14;;;;;;;1.50;0.88;;;25.00;99.90;;;;;;2614531;39;21127;-42
2021/08/23 12:41:44;;;;;;;1.63;1.20;;;25.00;99.90;;;;;;2615742;54;20148;-41
2021/08/23 12:44:13;;;;;;;1.60;1.27;;;25.00;99.90;;;;;;2616656;39;20596;-42
2021/08/23 12:46:43;;;;;;;3.72;1.33;;;24.90;99.90;;;;;;2615845;54;20177;-41
2021/08/23 12:49:12;;;;;;;1.08;0.90;;;25.10;99.90;;;;;;2615934;54;20165;-42
2021/08/23 12:51:42;;;;;;;1.10;1.00;;;25.20;99.90;;;;;;2615800;54;20172;-42
2021/08/23 12:54:14;;;;;;;1.42;1.08;;;25.00;99.90;;;;;;2616592;54;20141;-43
2021/08/23 12:56:43;;;;;;;0.82;0.80;;;24.60;99.90;;;;;;2616251;54;20157;-42
2021/08/23 12:59:12;;;;;;;2.03;1.20;;;24.70;99.90;;;;;;2616283;54;20153;-42
2021/08/23 13:01:41;;;;;;;2.40;1.27;;;24.80;99.90;;;;;;2616327;54;20145;-41
2021/08/23 13:04:10;;;;;;;2.67;1.35;;;25.00;99.90;;;;;;2616169;54;20145;-42
2021/08/23 13:06:39;;;;;;;3.53;3.22;;;25.00;99.90;;;;;;2616501;39;20590;-43
2021/08/23 13:09:08;;;;;;;2.05;0.93;;;24.70;99.90;;;;;;2615460;54;20176;-42
2021/08/23 13:11:40;;;;;;;3.90;1.27;;;24.90;99.90;;;;;;2616051;54;20684;-42
2021/08/23 13:14:09;;;;;;;2.33;1.60;;;25.10;99.90;;;;;;2616217;54;20165;-41
2021/08/23 13:16:37;;;;;;;1.90;1.48;;;25.30;99.90;;;;;;2615933;54;20141;-41
2021/08/23 13:19:06;;;;;;;1.83;1.40;;;25.30;99.90;;;;;;2616496;47;20165;-41
2021/08/23 13:21:35;;;;;;;2.30;1.52;;;25.30;99.90;;;;;;2616725;54;20180;-41
2021/08/23 13:24:05;;;;;;;3.60;1.60;;;25.20;99.90;;;;;;2617221;54;20168;-42
2021/08/23 13:26:34;;;;;;;6.45;4.90;;;25.10;99.90;;;;;;2616406;54;20157;-42
2021/08/23 13:29:05;;;;;;;3.40;2.95;;;24.90;99.90;;;;;;2617030;54;20168;-42
2021/08/23 13:31:35;;;;;;;4.03;1.88;;;25.30;99.90;;;;;;2616938;54;20149;-42
2021/08/23 13:34:04;;;;;;;3.65;2.00;;;25.50;99.90;;;;;;2618645;39;20291;-41
2021/08/23 13:36:33;;;;;;;1.83;1.52;;;25.90;99.90;;;;;;2617073;54;20149;-42
2021/08/23 13:39:02;;;;;;;3.80;2.05;;;26.10;99.90;;;;;;2617107;46;20180;-43
2021/08/23 13:41:31;;;;;;;1.52;1.30;;;26.40;99.90;;;;;;2616807;51;20252;-42
2021/08/23 13:44:00;;;;;;;4.90;1.88;;;26.30;99.90;;;;;;2617179;54;20153;-41
2021/08/23 13:46:32;;;;;;;2.00;1.45;;;26.20;99.90;;;;;;2617030;54;20186;-42
2021/08/23 13:49:01;;;;;;;2.47;1.50;;;26.30;99.90;;;;;;2617415;39;20617;-42
2021/08/23 13:51:31;;;;;;;2.58;1.90;;;26.20;99.90;;;;;;2617010;39;20574;-42
2021/08/23 13:54:00;;;;;;;3.60;2.13;;;26.30;99.90;;;;;;2616746;54;20148;-42
2021/08/23 13:56:29;;;;;;;2.47;1.60;;;26.30;99.90;;;;;;2616825;39;20633;-42
2021/08/23 13:58:59;;;;;;;2.05;1.70;;;26.60;99.90;;;;;;2616632;47;20184;-43
2021/08/23 14:01:30;;;;;;;2.83;1.70;;;27.00;99.90;;;;;;2616279;54;20765;-42
2021/08/23 14:03:59;;;;;;;2.85;2.05;;;27.20;99.90;;;;;;2616578;54;20681;-42
2021/08/23 14:06:28;;;;;;;5.43;2.17;;;27.50;99.90;;;;;;2616297;54;20141;-43
2021/08/23 14:08:57;;;;;;;2.63;2.13;;;27.50;99.90;;;;;;2616927;39;20723;-41